Wednesday, January 17, 2018, 11:26 AM GMT
Back to Local

CWBK, Caribou Point Meteorological Aeronautical Presentation System

Location: , , Canada Lat: 45.767
Local Time: 11:26 AM GMT (11:26 GMT) Lon: -62.683
Time Zone: GMT Elev: 6 ft

Show me the last for .
Show Decoded

2018-01-17 10:00 METAR CWBK 171000Z AUTO 28006KT M05/M06 RMK AO1 SOG 07 3007 SLP316 T10501055 =
2018-01-17 09:00 METAR CWBK 170900Z AUTO 30006KT M05/M06 RMK AO1 SOG 07 1004 SLP307 T10481063 =
2018-01-17 08:00 METAR CWBK 170800Z AUTO 29004KT M05/M06 RMK AO1 SOG 07 8006 SLP302 T10481058 =
2018-01-17 07:00 METAR CWBK 170700Z AUTO 27004KT M05/M06 RMK AO1 SOG 07 5001 SLP309 T10471057 =
2018-01-17 06:00 METAR CWBK 170600Z AUTO 27003KT M05/M06 RMK AO1 SOG 07 8007 SLP303 T10471056 =
2018-01-17 05:00 METAR CWBK 170500Z AUTO 26002KT M05/M06 RMK AO1 SOG 07 6005 SLP308 T10471056 =
2018-01-17 04:00 METAR CWBK 170400Z AUTO 26002KT M05/M06 RMK AO1 SOG 07 6003 SLP310 T10461056 =
2018-01-17 03:00 METAR CWBK 170300Z AUTO 27001KT M05/M06 RMK AO1 SOG 07 0000 SLP310 T10451056 =
2018-01-17 02:00 METAR CWBK 170200Z AUTO 30001KT M04/M05 RMK AO1 SOG 07 1008 SLP313 T10431054 =
2018-01-17 01:00 METAR CWBK 170100Z AUTO 30005KT M04/M05 RMK AO1 SOG 07 1014 SLP313 T10421051 =
2018-01-17 00:00 METAR CWBK 170000Z AUTO 33006KT M04/M05 RMK AO1 SOG 07 1019 SLP310 T10411048 =
2018-01-16 23:00 METAR CWBK 162300Z AUTO 32011KT M04/M04 RMK AO1 SOG 07 3015 SLP305 T10381035 =
2018-01-16 22:00 METAR CWBK 162200Z AUTO 32008KT M03/M04 RMK AO1 SOG 07 1018 SLP299 T10251041 =
2018-01-16 20:00 METAR CWBK 162000Z AUTO 29012KT M03/M04 RMK AO1 SOG 06 3013 SLP290 T10331043 =
2018-01-16 19:00 METAR CWBK 161900Z AUTO 29010KT M03/M04 RMK AO1 SOG 07 5001 SLP281 T10291043 =
2018-01-16 18:00 METAR CWBK 161800Z AUTO 30008KT M03/M04 RMK AO1 SOG 07 6016 SLP274 T10271041 =
2018-01-16 17:00 METAR CWBK 161700Z AUTO 32007KT M03/M04 RMK AO1 SOG 07 8010 SLP277 T10301043 =
2018-01-16 16:00 METAR CWBK 161600Z AUTO 32005KT M03/M05 RMK AO1 SOG 07 0010 SLP282 T10331046 =
2018-01-16 15:00 METAR CWBK 161500Z AUTO 32006KT M03/M04 RMK AO1 SOG 07 3014 SLP290 T10341035 =
2018-01-16 14:00 METAR CWBK 161400Z AUTO 34010KT M03/M04 RMK AO1 SOG 07 3006 PK WND 03018/1302
                 SLP287 T10251044 =
2018-01-16 13:00 METAR CWBK 161300Z AUTO 04014KT M03/M04 RMK AO1 SOG 07 8005 PK WND 05018/1244
                 SLP272 T10331041 =
2018-01-16 12:00 METAR CWBK 161200Z AUTO 04015KT M04/M04 RMK AO1 SOG 07 0008 PK WND 03019/1151
                 SLP276 T10371035 50026 =

Support USWX by starting your Amazon purchase here.